createdAt,value
2018-09-07T00:02:04.961Z,100968.65
2018-09-07T00:04:33.290Z,100970.30
2018-09-07T00:07:01.557Z,100968.28
2018-09-07T00:09:29.911Z,100963.84
2018-09-07T00:11:58.245Z,100957.84
2018-09-07T00:14:26.809Z,100949.61
2018-09-07T00:16:55.105Z,100957.13
2018-09-07T00:19:23.485Z,100952.39
2018-09-07T00:21:51.789Z,100952.73
2018-09-07T00:24:20.673Z,100948.87
2018-09-07T00:26:49.976Z,100948.73
2018-09-07T00:29:18.349Z,100946.09
2018-09-07T00:31:46.753Z,100945.51
2018-09-07T00:34:15.021Z,100944.89
2018-09-07T00:36:43.498Z,100946.02
2018-09-07T00:39:11.766Z,100948.16
2018-09-07T00:41:40.050Z,100941.20
2018-09-07T00:44:08.333Z,100945.51
2018-09-07T00:46:36.710Z,100943.88
2018-09-07T00:49:04.982Z,100946.06
2018-09-07T00:51:33.300Z,100946.70
2018-09-07T00:54:01.573Z,100946.87
2018-09-07T00:56:29.912Z,100951.39
2018-09-07T00:58:58.211Z,100943.44
2018-09-07T01:01:26.528Z,100941.56
2018-09-07T01:03:54.821Z,100939.33
2018-09-07T01:06:23.117Z,100934.70
2018-09-07T01:08:51.389Z,100935.39
2018-09-07T01:11:19.897Z,100934.84
2018-09-07T01:13:48.188Z,100937.63
2018-09-07T01:16:16.737Z,100945.52
2018-09-07T01:18:47.487Z,100942.43
2018-09-07T01:21:15.790Z,100940.74
2018-09-07T01:23:44.102Z,100941.98
2018-09-07T01:26:12.526Z,100939.97
2018-09-07T01:28:40.868Z,100939.27
2018-09-07T01:31:09.377Z,100932.59
2018-09-07T01:33:37.719Z,100928.98
2018-09-07T01:36:06.004Z,100929.50
2018-09-07T01:38:36.114Z,100928.58
2018-09-07T01:41:05.257Z,100931.38
2018-09-07T01:43:33.581Z,100932.06
2018-09-07T01:46:02.819Z,100927.44
2018-09-07T01:48:31.482Z,100933.34
2018-09-07T01:50:59.757Z,100926.12
2018-09-07T01:53:28.055Z,100919.07
2018-09-07T01:55:56.341Z,100922.55
2018-09-07T01:58:25.721Z,100922.23
2018-09-07T02:00:54.228Z,100920.30
2018-09-07T02:03:32.813Z,100916.28
2018-09-07T02:06:01.107Z,100918.98
2018-09-07T02:08:30.640Z,100914.95
2018-09-07T02:11:00.026Z,100913.27
2018-09-07T02:13:29.556Z,100909.38
2018-09-07T02:15:57.909Z,100915.03
2018-09-07T02:18:27.234Z,100914.86
2018-09-07T02:20:55.570Z,100910.98
2018-09-07T02:23:23.947Z,100909.52
2018-09-07T02:25:52.265Z,100909.70
2018-09-07T02:28:20.627Z,100912.31
2018-09-07T02:30:49.092Z,100912.63
2018-09-07T02:33:18.471Z,100911.67
2018-09-07T02:35:46.796Z,100911.39
2018-09-07T02:38:15.084Z,100915.33
2018-09-07T02:40:43.806Z,100911.56
2018-09-07T02:43:12.111Z,100917.88
2018-09-07T02:45:40.417Z,100918.52
2018-09-07T02:48:09.778Z,100911.42
2018-09-07T02:50:38.089Z,100908.84
2018-09-07T02:53:07.777Z,100902.51
2018-09-07T02:55:36.081Z,100905.30
2018-09-07T02:58:04.445Z,100902.69
2018-09-07T03:00:32.780Z,100899.81
2018-09-07T03:03:01.090Z,100902.33
2018-09-07T03:05:29.573Z,100907.45
2018-09-07T03:07:57.850Z,100901.97
2018-09-07T03:10:26.120Z,100901.21
2018-09-07T03:12:54.416Z,100896.70
2018-09-07T03:15:22.714Z,100899.21
2018-09-07T03:17:51.112Z,100900.25
2018-09-07T03:20:19.394Z,100895.55
2018-09-07T03:22:47.713Z,100896.98
2018-09-07T03:25:16.055Z,100896.16
2018-09-07T03:27:44.365Z,100895.95
2018-09-07T03:30:12.645Z,100893.69
2018-09-07T03:32:40.990Z,100889.81
2018-09-07T03:35:09.270Z,100890.50
2018-09-07T03:37:37.600Z,100887.39
2018-09-07T03:40:05.897Z,100893.59
2018-09-07T03:42:34.243Z,100891.37
2018-09-07T03:45:02.500Z,100894.84
2018-09-07T03:47:30.897Z,100900.28
2018-09-07T03:49:59.165Z,100893.88
2018-09-07T03:52:27.469Z,100895.05
2018-09-07T03:54:55.749Z,100892.28
2018-09-07T03:57:25.117Z,100887.53
2018-09-07T03:59:53.457Z,100888.72
2018-09-07T04:02:22.245Z,100890.83
2018-09-07T04:04:50.522Z,100887.85
2018-09-07T04:07:18.885Z,100884.91
2018-09-07T04:09:47.183Z,100882.88
2018-09-07T04:12:15.566Z,100883.91
2018-09-07T04:14:43.941Z,100886.84
2018-09-07T04:17:12.337Z,100887.17
2018-09-07T04:19:40.645Z,100887.25
2018-09-07T04:22:10.088Z,100885.60
2018-09-07T04:24:38.402Z,100886.60
2018-09-07T04:27:06.736Z,100888.22
2018-09-07T04:29:35.059Z,100893.55
2018-09-07T04:32:03.335Z,100891.23
2018-09-07T04:34:31.642Z,100896.52
2018-09-07T04:36:59.945Z,100887.28
2018-09-07T04:39:29.266Z,100886.28
2018-09-07T04:41:57.577Z,100893.41
2018-09-07T04:44:25.921Z,100892.69
2018-09-07T04:46:54.197Z,100897.17
2018-09-07T04:49:22.499Z,100890.50
2018-09-07T04:51:50.789Z,100898.63
2018-09-07T04:54:19.105Z,100893.94
2018-09-07T04:56:47.384Z,100895.44
2018-09-07T04:59:15.777Z,100897.77
2018-09-07T05:01:44.062Z,100897.13
2018-09-07T05:04:12.329Z,100897.41
2018-09-07T05:06:40.677Z,100902.84
2018-09-07T05:09:09.781Z,100899.05
2018-09-07T05:11:38.073Z,100894.06
2018-09-07T05:14:06.778Z,100899.00
2018-09-07T05:16:35.153Z,100894.72
2018-09-07T05:19:03.441Z,100899.97
2018-09-07T05:21:31.964Z,100903.48
2018-09-07T05:24:00.273Z,100901.88
2018-09-07T05:26:28.581Z,100910.80
2018-09-07T05:28:56.913Z,100900.97
2018-09-07T05:31:25.293Z,100903.30
2018-09-07T05:33:53.513Z,100902.47
2018-09-07T05:36:21.834Z,100914.23
2018-09-07T05:38:51.209Z,100911.52
2018-09-07T05:41:19.529Z,100907.86
2018-09-07T05:43:48.063Z,100901.82
2018-09-07T05:46:16.379Z,100903.52
2018-09-07T05:48:44.639Z,100903.66
2018-09-07T05:51:12.941Z,100909.84
2018-09-07T05:53:41.321Z,100905.86
2018-09-07T05:56:09.612Z,100905.47
2018-09-07T05:58:38.008Z,100905.84
2018-09-07T06:01:06.737Z,100902.50
2018-09-07T06:03:35.050Z,100915.77
2018-09-07T06:06:03.523Z,100909.14
2018-09-07T06:08:31.914Z,100908.95
2018-09-07T06:11:01.205Z,100909.56
2018-09-07T06:13:29.555Z,100913.34
2018-09-07T06:15:57.982Z,100910.46
2018-09-07T06:18:26.209Z,100919.48
2018-09-07T06:20:54.539Z,100919.61
2018-09-07T06:23:22.866Z,100912.64
2018-09-07T06:25:51.280Z,100916.62
2018-09-07T06:28:19.629Z,100919.05
2018-09-07T06:30:47.909Z,100914.61
2018-09-07T06:33:17.309Z,100909.25
2018-09-07T06:35:45.504Z,100910.24
2018-09-07T06:38:14.864Z,100913.78
2018-09-07T06:40:43.137Z,100918.39
2018-09-07T06:43:11.487Z,100924.47
2018-09-07T06:45:39.767Z,100924.91
2018-09-07T06:48:08.092Z,100928.02
2018-09-07T06:50:36.461Z,100926.13
2018-09-07T06:53:04.746Z,100931.38
2018-09-07T06:55:33.061Z,100930.87
2018-09-07T06:58:01.378Z,100931.48
2018-09-07T07:00:29.702Z,100922.89
2018-09-07T07:02:58.054Z,100931.43
2018-09-07T07:05:26.301Z,100927.11
2018-09-07T07:07:54.576Z,100932.87
2018-09-07T07:10:23.014Z,100931.66
2018-09-07T07:12:51.289Z,100932.37
2018-09-07T07:15:19.655Z,100935.02
2018-09-07T07:17:47.949Z,100940.47
2018-09-07T07:20:16.273Z,100936.61
2018-09-07T07:22:44.541Z,100934.17
2018-09-07T07:25:12.844Z,100929.01
2018-09-07T07:27:42.151Z,100936.42
2018-09-07T07:30:10.446Z,100931.34
2018-09-07T07:32:38.710Z,100933.86
2018-09-07T07:35:07.112Z,100940.73
2018-09-07T07:37:35.397Z,100935.11
2018-09-07T07:40:03.717Z,100932.23
2018-09-07T07:42:32.021Z,100929.69
2018-09-07T07:45:00.302Z,100927.93
2018-09-07T07:47:29.700Z,100922.56
2018-09-07T07:49:57.978Z,100926.72
2018-09-07T07:52:26.282Z,100923.27
2018-09-07T07:54:54.612Z,100918.80
2018-09-07T07:57:22.916Z,100919.81
2018-09-07T07:59:51.262Z,100920.82
2018-09-07T08:02:19.565Z,100920.93
2018-09-07T08:04:48.861Z,100920.48
2018-09-07T08:07:17.185Z,100925.37
2018-09-07T08:09:45.469Z,100934.22
2018-09-07T08:12:13.789Z,100933.41
2018-09-07T08:14:42.102Z,100934.92
2018-09-07T08:17:10.421Z,100932.89
2018-09-07T08:19:38.697Z,100928.58
2018-09-07T08:22:07.122Z,100928.38
2018-09-07T08:25:38.707Z,100935.32
2018-09-07T08:28:07.205Z,100935.03
2018-09-07T08:30:35.483Z,100934.22
2018-09-07T08:33:03.984Z,100940.67
2018-09-07T08:35:32.133Z,100946.91
2018-09-07T08:38:00.502Z,100941.96
2018-09-07T08:40:28.899Z,100946.44
2018-09-07T08:42:57.537Z,100950.17
2018-09-07T08:45:25.861Z,100944.94
2018-09-07T08:47:54.179Z,100946.82
2018-09-07T08:50:25.543Z,100949.53
2018-09-07T08:52:55.837Z,100949.05
2018-09-07T08:55:24.145Z,100951.43
2018-09-07T08:57:52.465Z,100950.98
2018-09-07T09:00:21.043Z,100946.49
2018-09-07T09:02:49.749Z,100958.45
2018-09-07T09:05:18.077Z,100950.44
2018-09-07T09:07:46.372Z,100956.98
2018-09-07T09:10:14.657Z,100951.84
2018-09-07T09:12:42.935Z,100951.20
2018-09-07T09:15:11.261Z,100948.90
2018-09-07T09:17:39.541Z,100954.63
2018-09-07T09:20:07.857Z,100950.02
2018-09-07T09:22:36.128Z,100955.30
2018-09-07T09:25:04.429Z,100971.15
2018-09-07T09:27:32.921Z,100972.04
2018-09-07T09:30:01.228Z,100978.05
2018-09-07T09:32:29.580Z,100975.01
2018-09-07T09:34:57.973Z,100976.16
2018-09-07T09:37:26.264Z,100982.86
2018-09-07T09:39:54.729Z,100979.94
2018-09-07T09:42:23.126Z,100986.95
2018-09-07T09:44:51.472Z,100978.59
2018-09-07T09:47:19.895Z,100976.69
2018-09-07T09:49:48.177Z,100983.02
2018-09-07T09:52:16.484Z,100983.22
2018-09-07T09:54:44.762Z,100983.54
2018-09-07T09:57:13.198Z,100981.91
2018-09-07T09:59:41.637Z,100981.59
2018-09-07T10:02:15.311Z,100985.53
2018-09-07T10:04:43.741Z,100987.51
2018-09-07T10:07:12.064Z,100990.53
2018-09-07T10:09:40.371Z,100991.52
2018-09-07T10:12:08.716Z,100991.11
2018-09-07T10:14:37.018Z,100997.73
2018-09-07T10:17:05.328Z,100991.03
2018-09-07T10:19:33.573Z,100988.25
2018-09-07T10:22:02.121Z,100992.75
2018-09-07T10:24:30.429Z,100989.27
2018-09-07T10:26:58.833Z,100994.47
2018-09-07T10:29:27.123Z,100992.91
2018-09-07T10:31:55.436Z,100990.36
2018-09-07T10:34:23.697Z,100989.70
2018-09-07T10:36:52.013Z,100992.38
2018-09-07T10:39:20.313Z,100994.31
2018-09-07T10:41:48.602Z,100990.66
2018-09-07T10:44:16.906Z,100992.51
2018-09-07T10:46:45.153Z,100989.96
2018-09-07T10:49:13.442Z,100996.41
2018-09-07T10:51:41.709Z,100994.01
2018-09-07T10:54:11.039Z,100994.70
2018-09-07T10:56:39.294Z,100988.41
2018-09-07T10:59:07.632Z,100984.25
2018-09-07T11:01:35.874Z,100990.95
2018-09-07T11:04:04.178Z,100990.44
2018-09-07T11:06:32.564Z,100988.12
2018-09-07T11:09:00.845Z,100993.42
2018-09-07T11:11:29.113Z,100990.06
2018-09-07T11:13:57.484Z,100990.44
2018-09-07T11:16:25.733Z,100989.10
2018-09-07T11:18:54.033Z,100984.35
2018-09-07T11:21:22.305Z,100976.42
2018-09-07T11:23:50.636Z,100971.10
2018-09-07T11:26:18.921Z,100967.77
2018-09-07T11:28:47.174Z,100969.27
2018-09-07T11:31:15.453Z,100980.31
2018-09-07T11:33:43.723Z,100981.69
2018-09-07T11:36:12.016Z,100972.06
2018-09-07T11:38:40.313Z,100975.36
2018-09-07T11:41:08.629Z,100975.55
2018-09-07T11:43:37.119Z,100982.48
2018-09-07T11:46:05.729Z,100987.22
2018-09-07T11:48:34.121Z,101003.31
2018-09-07T11:51:02.429Z,101004.15
2018-09-07T11:53:30.682Z,100990.36
2018-09-07T11:55:59.030Z,100991.81
2018-09-07T11:58:27.487Z,100981.59
2018-09-07T12:00:55.717Z,100979.92
2018-09-07T12:03:23.985Z,100984.67
2018-09-07T12:05:52.281Z,100972.20
2018-09-07T12:08:20.745Z,100974.88
2018-09-07T12:10:49.067Z,100969.95
2018-09-07T12:13:17.586Z,100971.41
2018-09-07T12:15:45.604Z,100978.72
2018-09-07T12:18:13.965Z,100985.97
2018-09-07T12:20:42.265Z,100982.02
2018-09-07T12:23:10.613Z,100982.16
2018-09-07T12:25:38.925Z,100981.28
2018-09-07T12:28:07.264Z,100978.78
2018-09-07T12:30:35.522Z,100977.76
2018-09-07T12:33:06.920Z,100982.22
2018-09-07T12:35:37.485Z,100970.08
2018-09-07T12:38:05.985Z,100981.60
2018-09-07T12:40:34.441Z,100970.33
2018-09-07T12:43:03.501Z,100968.14
2018-09-07T12:45:32.214Z,100968.58
2018-09-07T12:48:01.345Z,100971.24
2018-09-07T12:50:30.573Z,100974.05
2018-09-07T12:52:58.910Z,100978.70
2018-09-07T12:55:27.201Z,100973.38
2018-09-07T12:57:55.493Z,100974.00
2018-09-07T13:00:23.785Z,100967.69
2018-09-07T13:02:52.117Z,100972.37
2018-09-07T13:05:20.509Z,100971.74
2018-09-07T13:07:49.205Z,100967.65
2018-09-07T13:10:17.526Z,100972.69
2018-09-07T13:12:45.849Z,100968.77
2018-09-07T13:15:14.175Z,100969.39
2018-09-07T13:17:42.489Z,100964.81
2018-09-07T13:20:10.874Z,100976.20
2018-09-07T13:22:39.150Z,100965.30
2018-09-07T13:25:07.681Z,100957.44
2018-09-07T13:27:35.957Z,100952.41
2018-09-07T13:30:04.289Z,100956.55
2018-09-07T13:32:32.573Z,100956.13
2018-09-07T13:35:00.882Z,100959.13
2018-09-07T13:37:29.189Z,100944.55
2018-09-07T13:39:57.513Z,100952.02
2018-09-07T13:42:25.792Z,100949.26
2018-09-07T13:44:54.141Z,100954.43
2018-09-07T13:47:22.418Z,100956.19
2018-09-07T13:49:50.732Z,100956.00
2018-09-07T13:52:18.993Z,100960.28
2018-09-07T13:54:47.323Z,100960.33
2018-09-07T13:57:15.556Z,100958.23
2018-09-07T13:59:43.880Z,100967.38
2018-09-07T14:02:12.201Z,100984.20
2018-09-07T14:04:41.573Z,100996.69
2018-09-07T14:07:09.868Z,101021.00
2018-09-07T14:09:38.146Z,101011.17
2018-09-07T14:12:06.501Z,101030.48
2018-09-07T14:14:34.785Z,101025.58
2018-09-07T14:17:03.160Z,101027.47
2018-09-07T14:19:31.433Z,101031.16
2018-09-07T14:21:59.850Z,101041.98
2018-09-07T14:24:28.126Z,101048.61
2018-09-07T14:26:56.877Z,101050.20
2018-09-07T14:29:25.253Z,101050.49
2018-09-07T14:31:53.564Z,101059.45
2018-09-07T14:34:21.845Z,101065.10
2018-09-07T14:36:50.157Z,101053.02
2018-09-07T14:39:18.437Z,101066.13
2018-09-07T14:41:46.741Z,101066.41
2018-09-07T14:44:15.053Z,101072.72
2018-09-07T14:46:43.597Z,101075.19
2018-09-07T14:49:11.952Z,101079.20
2018-09-07T14:51:40.189Z,101073.73
2018-09-07T14:54:08.565Z,101071.44
2018-09-07T14:56:36.852Z,101079.66
2018-09-07T14:59:05.218Z,101079.70
2018-09-07T15:01:33.504Z,101069.77
2018-09-07T15:04:01.851Z,101072.41
2018-09-07T15:06:30.201Z,101079.03
2018-09-07T15:08:58.525Z,101075.88
2018-09-07T15:11:26.787Z,101074.37
2018-09-07T15:13:55.098Z,101071.63
2018-09-07T15:16:24.424Z,101091.88
2018-09-07T15:18:52.837Z,101092.73
2018-09-07T15:21:21.185Z,101089.45
2018-09-07T15:23:49.469Z,101097.44
2018-09-07T15:26:17.764Z,101093.16
2018-09-07T15:28:46.061Z,101103.94
2018-09-07T15:31:15.601Z,101100.86
2018-09-07T15:33:43.909Z,101101.08
2018-09-07T15:36:12.189Z,101108.23
2018-09-07T15:38:40.461Z,101109.22
2018-09-07T15:41:08.889Z,101114.56
2018-09-07T15:43:37.158Z,101129.77
2018-09-07T15:46:05.495Z,101133.68
2018-09-07T15:48:33.769Z,101147.19
2018-09-07T15:51:02.083Z,101152.63
2018-09-07T15:53:30.373Z,101164.22
2018-09-07T15:55:59.078Z,101169.78
2018-09-07T15:58:27.409Z,101167.38
2018-09-07T16:00:55.793Z,101170.08
2018-09-07T16:03:24.051Z,101178.41
2018-09-07T16:05:52.345Z,101176.88
2018-09-07T16:08:20.623Z,101187.31
2018-09-07T16:12:13.326Z,101181.62
2018-09-07T16:14:41.605Z,101183.66
2018-09-07T16:17:09.932Z,101192.38
2018-09-07T16:19:38.265Z,101176.66
2018-09-07T16:22:06.717Z,101188.41
2018-09-07T16:24:34.997Z,101187.61
2018-09-07T16:27:03.318Z,101190.69
2018-09-07T16:29:31.593Z,101184.38
2018-09-07T16:32:01.137Z,101183.62
2018-09-07T16:34:29.413Z,101192.73
2018-09-07T16:36:59.750Z,101194.78
2018-09-07T16:39:28.013Z,101187.20
2018-09-07T16:41:56.320Z,101194.35
2018-09-07T16:44:25.662Z,101208.26
2018-09-07T16:46:53.996Z,101207.89
2018-09-07T16:49:22.285Z,101203.64
2018-09-07T16:51:50.675Z,101202.48
2018-09-07T16:54:18.939Z,101209.24
2018-09-07T16:56:48.302Z,101203.49
2018-09-07T16:59:16.595Z,101209.73
2018-09-07T17:01:44.929Z,101207.47
2018-09-07T17:04:13.262Z,101209.58
2018-09-07T17:06:42.627Z,101209.35
2018-09-07T17:09:10.881Z,101214.73
2018-09-07T17:11:39.163Z,101218.70
2018-09-07T17:14:07.461Z,101226.16
2018-09-07T17:16:35.757Z,101227.11
2018-09-07T17:19:05.425Z,101222.75
2018-09-07T17:21:33.777Z,101226.16
2018-09-07T17:24:02.157Z,101238.52
2018-09-07T17:26:30.432Z,101242.33
2018-09-07T17:28:58.720Z,101246.05
2018-09-07T17:31:26.990Z,101254.78
2018-09-07T17:33:55.278Z,101264.27
2018-09-07T17:36:23.545Z,101260.64
2018-09-07T17:38:51.824Z,101258.60
2018-09-07T17:41:20.106Z,101261.58
2018-09-07T17:43:48.423Z,101268.38
2018-09-07T17:46:16.700Z,101276.94
2018-09-07T17:48:45.177Z,101277.27
2018-09-07T17:51:13.433Z,101284.63
2018-09-07T17:53:41.749Z,101288.67
2018-09-07T17:56:10.127Z,101294.50
2018-09-07T17:58:38.478Z,101297.22
2018-09-07T18:01:06.840Z,101306.84
2018-09-07T18:03:35.126Z,101305.08
2018-09-07T18:06:04.395Z,101311.67
2018-09-07T18:08:32.665Z,101319.92
2018-09-07T18:11:00.973Z,101317.98
2018-09-07T18:13:29.241Z,101323.53
2018-09-07T18:15:57.553Z,101322.27
2018-09-07T18:18:25.822Z,101330.08
2018-09-07T18:20:54.148Z,101331.17
2018-09-07T18:23:22.403Z,101335.83
2018-09-07T18:29:55.488Z,101343.84
2018-09-07T18:32:23.799Z,101339.92
2018-09-07T18:34:52.155Z,101350.88
2018-09-07T18:37:20.413Z,101355.73
2018-09-07T18:39:49.584Z,101342.70
2018-09-07T18:42:17.934Z,101355.73
2018-09-07T18:44:46.213Z,101350.95
2018-09-07T18:47:15.882Z,101359.84
2018-09-07T18:49:44.198Z,101361.95
2018-09-07T18:52:12.494Z,101359.32
2018-09-07T18:54:40.773Z,101365.80
2018-09-07T18:57:09.074Z,101365.49
2018-09-07T18:59:37.361Z,101364.20
2018-09-07T19:02:07.210Z,101372.48
2018-09-07T19:04:35.493Z,101372.59
2018-09-07T19:07:03.806Z,101379.17
2018-09-07T19:09:32.085Z,101371.34
2018-09-07T19:12:00.388Z,101375.47
2018-09-07T19:14:28.849Z,101378.29
2018-09-07T19:16:57.213Z,101392.87
2018-09-07T19:19:25.570Z,101398.32
2018-09-07T19:21:53.837Z,101395.24
2018-09-07T19:24:22.132Z,101400.20
2018-09-07T19:26:51.457Z,101400.64
2018-09-07T19:29:19.749Z,101392.89
2018-09-07T19:31:49.141Z,101395.89
2018-09-07T19:34:17.418Z,101402.52
2018-09-07T19:36:45.691Z,101401.66
2018-09-07T19:39:13.993Z,101411.73
2018-09-07T19:41:42.265Z,101403.94
2018-09-07T19:44:10.599Z,101402.34
2018-09-07T19:46:39.913Z,101404.11
2018-09-07T19:49:08.295Z,101402.69
2018-09-07T19:51:36.533Z,101406.77
2018-09-07T19:54:04.944Z,101405.24
2018-09-07T19:56:33.233Z,101403.92
2018-09-07T19:59:02.641Z,101396.03
2018-09-07T20:01:30.913Z,101398.94
2018-09-07T20:04:00.366Z,101394.42
2018-09-07T20:06:28.654Z,101393.66
2018-09-07T20:08:56.997Z,101395.85
2018-09-07T20:11:25.376Z,101401.25
2018-09-07T20:13:53.737Z,101400.23
2018-09-07T20:16:22.017Z,101392.22
2018-09-07T20:18:52.320Z,101400.78
2018-09-07T20:21:22.648Z,101400.86
2018-09-07T20:23:50.933Z,101401.21
2018-09-07T20:26:19.887Z,101408.33
2018-09-07T20:28:48.169Z,101404.38
2018-09-07T20:31:17.485Z,101407.02
2018-09-07T20:33:45.806Z,101402.73
2018-09-07T20:36:14.133Z,101404.66
2018-09-07T20:38:42.438Z,101402.95
2018-09-07T20:41:10.734Z,101393.19
2018-09-07T20:43:39.038Z,101399.41
2018-09-07T20:46:08.337Z,101393.05
2018-09-07T20:48:36.601Z,101401.98
2018-09-07T20:51:04.950Z,101402.59
2018-09-07T20:53:33.233Z,101408.71
2018-09-07T20:56:01.554Z,101410.29
2018-09-07T20:58:29.831Z,101405.71
2018-09-07T21:00:58.146Z,101409.41
2018-09-07T21:03:27.404Z,101412.16
2018-09-07T21:05:55.683Z,101408.83
2018-09-07T21:08:23.956Z,101414.94
2018-09-07T21:10:53.307Z,101412.30
2018-09-07T21:13:22.666Z,101412.59
2018-09-07T21:15:50.945Z,101406.58
2018-09-07T21:18:19.265Z,101409.67
2018-09-07T21:20:48.629Z,101413.28
2018-09-07T21:23:16.934Z,101415.75
2018-09-07T21:25:45.313Z,101416.25
2018-09-07T21:28:13.577Z,101411.80
2018-09-07T21:30:41.941Z,101414.03
2018-09-07T21:33:10.241Z,101409.77
2018-09-07T21:35:38.509Z,101413.22
2018-09-07T21:38:06.828Z,101417.04
2018-09-07T21:40:35.113Z,101417.56
2018-09-07T21:43:03.437Z,101431.67
2018-09-07T21:45:31.729Z,101433.26
2018-09-07T21:48:00.022Z,101428.53
2018-09-07T21:50:28.354Z,101430.50
2018-09-07T21:52:56.665Z,101428.45
2018-09-07T21:55:25.137Z,101423.41
2018-09-07T21:57:53.462Z,101424.14
2018-09-07T22:00:21.803Z,101417.58
2018-09-07T22:02:50.115Z,101420.69
2018-09-07T22:05:18.389Z,101423.68
2018-09-07T22:07:54.042Z,101426.07
2018-09-07T22:10:22.349Z,101422.61
2018-09-07T22:12:50.698Z,101424.50
2018-09-07T22:15:20.033Z,101427.38
2018-09-07T22:17:48.378Z,101434.66
2018-09-07T22:20:16.692Z,101423.05
2018-09-07T22:22:44.974Z,101424.84
2018-09-07T22:25:13.265Z,101420.56
2018-09-07T22:27:41.788Z,101416.27
2018-09-07T22:30:10.167Z,101411.22
2018-09-07T22:32:38.451Z,101419.02
2018-09-07T22:35:06.760Z,101409.70
2018-09-07T22:37:35.033Z,101406.80
2018-09-07T22:40:03.514Z,101405.53
2018-09-07T22:42:31.988Z,101407.67
2018-09-07T22:45:00.313Z,101413.55
2018-09-07T22:47:28.855Z,101417.98
2018-09-07T22:49:58.283Z,101418.59
2018-09-07T22:52:26.574Z,101419.30
2018-09-07T22:54:54.844Z,101428.88
2018-09-07T22:57:23.142Z,101435.89
2018-09-07T22:59:51.433Z,101432.22
2018-09-07T23:02:20.172Z,101425.42
2018-09-07T23:04:48.626Z,101422.45
2018-09-07T23:07:17.093Z,101426.03
2018-09-07T23:09:45.389Z,101425.33
2018-09-07T23:12:13.758Z,101432.11
2018-09-07T23:14:42.026Z,101426.03
2018-09-07T23:17:10.323Z,101424.73
2018-09-07T23:19:39.619Z,101425.09
2018-09-07T23:22:10.082Z,101430.57
2018-09-07T23:24:38.357Z,101423.17
2018-09-07T23:27:06.648Z,101421.64
2018-09-07T23:29:34.955Z,101418.78
2018-09-07T23:32:05.302Z,101416.97
2018-09-07T23:34:33.565Z,101419.23
2018-09-07T23:37:01.860Z,101421.64
2018-09-07T23:39:30.134Z,101419.95
2018-09-07T23:41:58.421Z,101413.25
2018-09-07T23:44:26.724Z,101414.09
2018-09-07T23:46:55.041Z,101411.81
2018-09-07T23:49:23.330Z,101407.88
2018-09-07T23:51:51.744Z,101407.73
2018-09-07T23:54:20.011Z,101411.07
2018-09-07T23:56:48.261Z,101409.31
2018-09-07T23:59:16.591Z,101401.52
